Time;durP1;ratioP1;P1;durP2;ratioP2;P2;SDS_P1;SDS_P2;PMS_P1;PMS_P2;Temp;Humidity;BMP_temperature;BMP_pressure;BME280_temperature;BME280_humidity;BME280_pressure;Samples;Min_cycle;Max_cycle;Signal;HPM_P1;HPM_P2
2020/12/01 00:00:18;;;;;;;8.93;1.20;;;7.60;99.90;;;;;;4989658;28;20470;-66
2020/12/01 00:02:44;;;;;;;7.50;1.48;;;7.60;99.90;;;;;;4989981;28;20023;-66
2020/12/01 00:05:11;;;;;;;16.10;1.60;;;7.60;99.90;;;;;;4989625;28;20079;-66
2020/12/01 00:07:37;;;;;;;15.18;1.27;;;7.60;99.90;;;;;;4990005;28;20042;-68
2020/12/01 00:10:04;;;;;;;17.00;1.25;;;7.70;99.90;;;;;;4989528;28;20039;-67
2020/12/01 00:12:29;;;;;;;18.40;2.03;;;7.70;99.90;;;;;;4990146;28;20410;-66
2020/12/01 00:14:55;;;;;;;8.25;1.70;;;7.70;99.90;;;;;;4990115;28;20022;-66
2020/12/01 00:17:20;;;;;;;28.95;3.28;;;7.70;99.90;;;;;;4991390;28;20031;-66
2020/12/01 00:19:46;;;;;;;11.77;1.63;;;7.60;99.90;;;;;;4989393;28;20043;-66
2020/12/01 00:22:13;;;;;;;13.77;2.95;;;7.60;99.90;;;;;;4989068;28;20456;-66
2020/12/01 00:24:38;;;;;;;14.27;3.30;;;7.60;99.90;;;;;;4979815;28;20038;-68
2020/12/01 00:27:04;;;;;;;27.63;3.45;;;7.60;99.90;;;;;;4988993;28;20466;-65
2020/12/01 00:29:29;;;;;;;20.55;2.15;;;7.60;99.90;;;;;;4989290;28;20042;-67
2020/12/01 00:31:55;;;;;;;16.10;3.13;;;7.60;99.90;;;;;;4976610;28;20483;-66
2020/12/01 00:34:20;;;;;;;13.70;1.80;;;7.60;99.90;;;;;;4981987;28;20086;-65
2020/12/01 00:36:46;;;;;;;13.38;1.80;;;7.60;99.90;;;;;;4984050;28;20166;-65
2020/12/01 00:39:12;;;;;;;15.85;2.00;;;7.60;99.90;;;;;;4992990;28;20132;-66
2020/12/01 00:41:38;;;;;;;17.20;1.92;;;7.60;99.90;;;;;;4983716;28;20038;-67
2020/12/01 00:44:04;;;;;;;15.80;1.92;;;7.60;99.90;;;;;;4992297;28;20040;-67
2020/12/01 00:46:30;;;;;;;15.70;1.73;;;7.60;99.90;;;;;;4979841;28;20116;-65
2020/12/01 00:48:56;;;;;;;16.48;2.60;;;7.50;99.90;;;;;;4981847;28;20057;-65
2020/12/01 00:51:22;;;;;;;21.15;2.30;;;7.50;99.90;;;;;;4992663;28;20037;-66
2020/12/01 00:53:48;;;;;;;13.98;1.88;;;7.50;99.90;;;;;;4992678;28;20045;-66
2020/12/01 00:56:21;;;;;;;30.17;3.45;;;7.40;99.90;;;;;;4992204;28;20043;-66
2020/12/01 00:58:47;;;;;;;18.10;2.13;;;7.50;99.90;;;;;;4992623;28;20038;-66
2020/12/01 01:01:12;;;;;;;17.65;2.92;;;7.50;99.90;;;;;;4992251;28;20642;-66
2020/12/01 01:03:38;;;;;;;26.35;3.05;;;7.40;99.90;;;;;;4992964;28;20042;-65
2020/12/01 01:06:03;;;;;;;14.07;1.70;;;7.40;99.90;;;;;;4988649;28;20038;-66
2020/12/01 01:08:29;;;;;;;19.92;2.63;;;7.30;99.90;;;;;;4992931;28;20061;-66
2020/12/01 01:10:55;;;;;;;12.30;1.75;;;7.30;99.90;;;;;;4992490;28;20388;-66
2020/12/01 01:13:21;;;;;;;20.33;2.42;;;7.20;99.90;;;;;;4991797;28;20034;-66
2020/12/01 01:15:46;;;;;;;16.85;2.40;;;7.20;99.90;;;;;;4992556;28;20030;-65
2020/12/01 01:18:12;;;;;;;18.15;2.35;;;7.20;99.90;;;;;;4992087;28;20511;-65
2020/12/01 01:20:37;;;;;;;14.90;2.53;;;7.20;99.90;;;;;;4992643;28;20046;-67
2020/12/01 01:23:03;;;;;;;11.63;1.60;;;7.20;99.90;;;;;;4992099;28;20050;-66
2020/12/01 01:25:28;;;;;;;22.55;3.15;;;7.20;99.90;;;;;;4992888;28;20107;-66
2020/12/01 01:27:54;;;;;;;28.45;2.65;;;7.30;99.90;;;;;;4992431;28;20026;-66
2020/12/01 01:30:22;;;;;;;12.52;2.63;;;7.30;99.90;;;;;;4992097;28;20064;-67
2020/12/01 01:32:48;;;;;;;17.63;1.67;;;7.30;99.90;;;;;;4982431;28;20133;-66
2020/12/01 01:35:15;;;;;;;8.82;1.73;;;7.30;99.90;;;;;;4991659;28;20182;-67
2020/12/01 01:37:41;;;;;;;20.15;1.90;;;7.30;99.90;;;;;;4992202;28;20023;-66
2020/12/01 01:40:07;;;;;;;14.80;1.80;;;7.30;99.90;;;;;;4982190;28;20022;-67
2020/12/01 01:42:33;;;;;;;22.30;2.10;;;7.30;99.90;;;;;;4992109;28;20034;-65
2020/12/01 01:44:59;;;;;;;15.18;1.52;;;7.20;99.90;;;;;;4978994;28;20056;-65
2020/12/01 01:47:30;;;;;;;19.40;2.22;;;7.20;99.90;;;;;;4991701;28;20431;-66
2020/12/01 01:49:59;;;;;;;15.45;1.63;;;7.20;99.90;;;;;;4991948;28;20031;-65
2020/12/01 01:52:30;;;;;;;27.00;2.60;;;7.10;99.90;;;;;;4991446;28;20676;-65
2020/12/01 01:55:11;;;;;;;10.80;1.55;;;7.00;99.90;;;;;;4992082;28;20034;-66
2020/12/01 01:57:38;;;;;;;16.08;2.20;;;7.00;99.90;;;;;;4978797;28;20084;-65
2020/12/01 02:00:15;;;;;;;17.58;1.90;;;7.00;99.90;;;;;;4982600;28;20041;-66
2020/12/01 02:02:40;;;;;;;16.95;1.15;;;7.00;99.90;;;;;;4992979;28;20412;-65
2020/12/01 02:05:06;;;;;;;17.80;2.47;;;7.10;99.90;;;;;;4992007;28;20036;-66
2020/12/01 02:07:31;;;;;;;14.65;3.30;;;7.10;99.90;;;;;;4986839;28;20502;-67
2020/12/01 02:09:58;;;;;;;17.67;3.00;;;7.10;99.90;;;;;;4991652;28;20030;-66
2020/12/01 02:12:24;;;;;;;17.40;2.83;;;7.10;99.90;;;;;;4989533;28;20065;-67
2020/12/01 02:15:01;;;;;;;12.80;2.38;;;7.10;99.90;;;;;;4990999;28;20159;-69
2020/12/01 02:17:32;;;;;;;9.95;1.70;;;7.10;99.90;;;;;;4991049;28;20027;-66
2020/12/01 02:20:20;;;;;;;9.13;1.35;;;7.10;99.90;;;;;;4986029;28;20432;-68
2020/12/01 02:22:49;;;;;;;11.20;2.17;;;7.10;99.90;;;;;;4988865;28;20113;-66
2020/12/01 02:25:18;;;;;;;11.23;1.40;;;7.10;99.90;;;;;;4982031;28;20043;-67
2020/12/01 02:27:49;;;;;;;9.80;1.63;;;7.00;99.90;;;;;;4990709;28;20034;-65
2020/12/01 02:30:15;;;;;;;16.05;1.75;;;7.00;99.90;;;;;;4991195;28;20046;-67
2020/12/01 02:32:40;;;;;;;14.57;1.52;;;6.90;99.90;;;;;;4990481;28;20031;-65
2020/12/01 02:35:10;;;;;;;15.25;1.60;;;6.90;99.90;;;;;;4981827;28;20086;-65
2020/12/01 02:37:37;;;;;;;9.57;1.38;;;6.90;99.90;;;;;;4985134;28;20628;-66
2020/12/01 02:40:06;;;;;;;8.15;0.93;;;6.90;99.90;;;;;;4990989;28;20030;-65
2020/12/01 02:42:31;;;;;;;11.55;1.42;;;7.00;99.90;;;;;;4986588;28;20034;-66
2020/12/01 02:44:57;;;;;;;7.68;0.95;;;7.00;99.90;;;;;;4990327;28;20026;-67
2020/12/01 02:47:23;;;;;;;7.32;0.75;;;7.00;99.90;;;;;;4990824;28;20133;-65
2020/12/01 02:49:49;;;;;;;15.32;1.95;;;7.10;99.90;;;;;;4990602;28;20030;-66
2020/12/01 02:52:14;;;;;;;11.30;2.00;;;7.00;99.90;;;;;;4990704;28;20039;-66
2020/12/01 02:54:40;;;;;;;10.15;0.90;;;7.10;99.90;;;;;;4990313;28;20039;-65
2020/12/01 02:57:06;;;;;;;14.43;1.27;;;7.10;99.90;;;;;;4989988;28;20058;-67
2020/12/01 02:59:32;;;;;;;11.93;1.10;;;7.10;99.90;;;;;;4977395;28;20081;-66
2020/12/01 03:01:58;;;;;;;18.23;1.45;;;7.10;99.90;;;;;;4990297;28;20038;-65
2020/12/01 03:04:23;;;;;;;14.43;2.05;;;7.20;99.90;;;;;;4990404;28;20034;-65
2020/12/01 03:06:49;;;;;;;14.05;0.95;;;7.10;99.90;;;;;;4992325;28;20041;-66
2020/12/01 03:09:19;;;;;;;7.88;1.27;;;7.20;99.90;;;;;;4993863;28;20046;-66
2020/12/01 03:11:46;;;;;;;7.82;0.85;;;7.20;99.90;;;;;;4991942;28;20038;-67
2020/12/01 03:14:12;;;;;;;8.02;0.57;;;7.30;99.90;;;;;;4981194;28;20125;-65
2020/12/01 03:16:38;;;;;;;7.72;1.15;;;7.30;99.90;;;;;;4980699;28;20038;-65
2020/12/01 03:19:04;;;;;;;6.45;1.00;;;7.30;99.90;;;;;;4990387;28;20037;-66
2020/12/01 03:21:29;;;;;;;13.48;1.00;;;7.30;99.90;;;;;;4990119;28;20048;-66
2020/12/01 03:23:55;;;;;;;12.63;1.67;;;7.20;99.90;;;;;;4989838;28;20121;-66
2020/12/01 03:26:21;;;;;;;19.27;1.73;;;7.10;99.90;;;;;;4980559;28;20129;-66
2020/12/01 03:28:47;;;;;;;13.10;0.88;;;7.10;99.90;;;;;;4989551;28;20023;-67
2020/12/01 03:31:15;;;;;;;13.77;0.68;;;7.20;99.90;;;;;;4990166;28;20115;-65
2020/12/01 03:33:41;;;;;;;11.52;0.88;;;7.30;99.90;;;;;;4989404;28;20039;-65
2020/12/01 03:36:07;;;;;;;10.00;1.40;;;7.40;99.90;;;;;;4980869;28;20041;-65
2020/12/01 03:38:32;;;;;;;12.82;1.10;;;7.40;99.90;;;;;;4989925;28;20037;-65
2020/12/01 03:40:58;;;;;;;14.07;1.60;;;7.50;99.90;;;;;;4980164;28;20030;-66
2020/12/01 03:43:23;;;;;;;8.02;0.73;;;7.50;99.90;;;;;;4988077;28;20498;-65
2020/12/01 03:45:49;;;;;;;6.22;0.60;;;7.50;99.90;;;;;;4979613;28;20046;-65
2020/12/01 03:48:15;;;;;;;12.07;0.80;;;7.60;99.90;;;;;;4990135;28;20490;-67
2020/12/01 03:50:41;;;;;;;8.68;0.90;;;7.60;99.90;;;;;;4989271;28;20034;-67
2020/12/01 03:53:07;;;;;;;14.15;0.60;;;7.60;99.90;;;;;;4989807;28;20031;-67
2020/12/01 03:55:33;;;;;;;2.85;0.50;;;7.60;99.90;;;;;;4989493;28;20073;-67
2020/12/01 03:57:59;;;;;;;6.63;1.20;;;7.60;99.90;;;;;;4989368;28;20046;-66
2020/12/01 04:00:27;;;;;;;8.43;1.33;;;7.60;99.90;;;;;;4989369;28;20038;-66
2020/12/01 04:02:53;;;;;;;13.73;1.10;;;7.60;99.90;;;;;;4989086;28;20038;-66
2020/12/01 04:05:21;;;;;;;12.20;1.70;;;7.60;99.90;;;;;;4989485;28;20184;-65
2020/12/01 04:07:47;;;;;;;9.48;1.75;;;7.60;99.90;;;;;;4979367;28;20029;-66
2020/12/01 04:10:16;;;;;;;17.10;1.77;;;7.70;99.90;;;;;;4989111;28;20027;-66
2020/12/01 04:12:42;;;;;;;8.77;1.50;;;7.70;99.90;;;;;;4989379;28;20517;-67
2020/12/01 04:15:08;;;;;;;13.15;1.45;;;7.70;99.90;;;;;;4988938;28;20460;-67
2020/12/01 04:17:34;;;;;;;6.40;0.82;;;7.70;99.90;;;;;;4980004;28;20439;-65
2020/12/01 04:20:00;;;;;;;3.55;0.73;;;7.80;99.90;;;;;;4988808;28;20030;-67
2020/12/01 04:22:26;;;;;;;7.10;1.00;;;7.60;99.90;;;;;;4979746;28;20488;-67
2020/12/01 04:24:51;;;;;;;7.18;1.05;;;7.80;99.90;;;;;;4988617;28;20519;-67
2020/12/01 04:27:18;;;;;;;6.20;0.95;;;7.80;99.90;;;;;;4989500;28;20655;-65
2020/12/01 04:29:44;;;;;;;8.63;0.85;;;7.90;99.90;;;;;;4989234;28;20453;-66
2020/12/01 04:32:10;;;;;;;5.85;0.85;;;7.90;99.90;;;;;;4989105;28;20036;-67
2020/12/01 04:34:36;;;;;;;6.25;0.80;;;7.90;99.90;;;;;;4987615;28;20517;-67
2020/12/01 04:37:03;;;;;;;5.07;0.90;;;8.00;99.90;;;;;;4988744;28;20042;-68
2020/12/01 04:39:29;;;;;;;5.18;1.13;;;8.10;99.90;;;;;;4989055;28;20038;-67
2020/12/01 04:41:55;;;;;;;4.15;0.75;;;8.10;99.90;;;;;;4988626;28;20034;-68
2020/12/01 04:44:37;;;;;;;3.75;0.52;;;8.30;99.90;;;;;;4975079;28;20034;-67
2020/12/01 04:47:20;;;;;;;4.47;0.63;;;8.30;99.90;;;;;;4986238;28;20045;-68
2020/12/01 04:49:54;;;;;;;3.85;0.45;;;8.40;99.90;;;;;;4989023;28;20124;-67
2020/12/01 04:52:20;;;;;;;9.98;0.90;;;8.40;99.90;;;;;;4988858;28;20026;-68
2020/12/01 04:55:19;;;;;;;10.55;1.20;;;8.50;99.90;;;;;;4988953;28;20051;-68
2020/12/01 04:57:44;;;;;;;18.40;2.63;;;8.60;99.90;;;;;;4988169;28;20034;-67
2020/12/01 05:00:13;;;;;;;12.10;2.45;;;8.60;99.90;;;;;;4987237;28;20068;-66
2020/12/01 05:03:09;;;;;;;13.73;1.48;;;8.60;99.90;;;;;;4988569;28;20030;-67
2020/12/01 05:05:44;;;;;;;17.95;1.38;;;8.60;99.90;;;;;;4986149;28;20607;-68
2020/12/01 05:08:25;;;;;;;10.98;2.08;;;8.60;99.90;;;;;;4989123;28;20065;-68
2020/12/01 05:10:52;;;;;;;20.13;2.15;;;8.60;99.90;;;;;;4984649;28;20039;-67
2020/12/01 05:13:30;;;;;;;11.95;2.50;;;8.60;99.90;;;;;;4988723;28;20056;-68
2020/12/01 05:16:12;;;;;;;14.40;1.67;;;8.60;99.90;;;;;;4976019;28;20037;-68
2020/12/01 05:18:39;;;;;;;20.42;1.95;;;8.70;99.90;;;;;;4988760;28;20030;-67
2020/12/01 05:21:05;;;;;;;24.38;3.83;;;8.60;99.90;;;;;;4990210;28;20041;-67
2020/12/01 05:23:45;;;;;;;15.07;1.70;;;8.60;99.90;;;;;;4992385;28;20034;-67
2020/12/01 05:26:14;;;;;;;17.85;1.65;;;8.60;99.90;;;;;;4992026;28;20046;-67
2020/12/01 05:28:43;;;;;;;12.07;2.88;;;8.70;99.90;;;;;;4982727;28;20030;-68
2020/12/01 05:31:08;;;;;;;16.52;1.58;;;8.60;99.90;;;;;;4991006;28;20109;-68
2020/12/01 05:33:34;;;;;;;13.40;2.08;;;8.60;99.90;;;;;;4991124;28;20030;-68
2020/12/01 05:36:14;;;;;;;17.65;1.30;;;8.60;99.90;;;;;;4976094;28;20078;-67
2020/12/01 05:38:40;;;;;;;17.67;2.28;;;8.60;99.90;;;;;;4991513;28;20071;-68
2020/12/01 05:41:27;;;;;;;19.08;2.17;;;8.70;99.90;;;;;;4990775;28;20142;-67
2020/12/01 05:43:59;;;;;;;19.63;2.13;;;8.70;99.90;;;;;;4989137;28;20395;-68
2020/12/01 05:46:28;;;;;;;9.00;1.65;;;8.70;99.90;;;;;;4991699;28;20050;-68
2020/12/01 05:49:18;;;;;;;15.18;2.53;;;8.70;99.90;;;;;;4990916;28;20108;-68
2020/12/01 05:51:47;;;;;;;14.57;1.92;;;8.70;99.90;;;;;;4991147;28;20038;-68
2020/12/01 05:54:22;;;;;;;11.75;2.13;;;8.70;99.90;;;;;;4980851;28;20407;-67
2020/12/01 05:56:52;;;;;;;11.60;2.15;;;8.70;99.90;;;;;;4987653;28;20049;-66
2020/12/01 05:59:21;;;;;;;16.73;2.47;;;8.70;99.90;;;;;;4982196;28;20041;-69
2020/12/01 06:01:50;;;;;;;16.13;0.90;;;8.70;99.90;;;;;;4987183;28;20372;-66
2020/12/01 06:04:20;;;;;;;11.68;1.75;;;8.70;99.90;;;;;;4991169;28;20622;-68
2020/12/01 06:07:07;;;;;;;9.37;2.17;;;8.80;99.90;;;;;;4992111;28;20100;-67
2020/12/01 06:09:53;;;;;;;4.47;0.55;;;8.70;99.90;;;;;;4991814;28;20042;-66
2020/12/01 06:12:44;;;;;;;7.35;1.25;;;8.80;99.90;;;;;;4989764;28;20555;-67
2020/12/01 06:15:16;;;;;;;7.72;0.63;;;8.80;99.90;;;;;;4983106;28;20038;-66
2020/12/01 06:18:09;;;;;;;9.73;1.30;;;8.80;99.90;;;;;;4996588;28;20546;-68
2020/12/01 06:21:02;;;;;;;15.70;2.17;;;8.80;99.90;;;;;;4992253;28;20034;-68
2020/12/01 06:23:53;;;;;;;14.57;1.98;;;8.70;99.90;;;;;;5000604;28;20072;-66
2020/12/01 06:26:50;;;;;;;14.30;1.65;;;8.70;99.90;;;;;;4990136;28;20033;-67
2020/12/01 06:29:33;;;;;;;16.95;1.60;;;8.70;99.90;;;;;;4989458;28;20030;-67
2020/12/01 06:32:43;;;;;;;21.15;2.78;;;8.60;99.90;;;;;;4989656;28;20034;-65
2020/12/01 06:35:11;;;;;;;16.67;1.58;;;8.60;99.90;;;;;;4989970;28;20042;-67
2020/12/01 06:37:53;;;;;;;23.90;4.03;;;8.60;99.90;;;;;;4995339;28;20042;-66
2020/12/01 06:40:48;;;;;;;23.35;2.58;;;8.60;99.90;;;;;;4990695;28;20431;-66
2020/12/01 06:43:35;;;;;;;16.95;2.90;;;8.60;99.90;;;;;;4993572;28;20034;-66
2020/12/01 06:46:00;;;;;;;18.52;2.50;;;8.50;99.90;;;;;;4993914;28;20040;-67
2020/12/01 06:48:42;;;;;;;19.02;3.22;;;8.50;99.90;;;;;;4993788;28;20026;-67
2020/12/01 06:51:11;;;;;;;21.73;2.65;;;8.50;99.90;;;;;;4993394;28;20037;-66
2020/12/01 06:53:40;;;;;;;20.67;3.30;;;8.50;99.90;;;;;;4995736;28;20038;-67
2020/12/01 06:56:05;;;;;;;25.40;4.10;;;8.50;99.90;;;;;;4993921;28;20049;-67
2020/12/01 06:58:37;;;;;;;21.73;2.38;;;8.50;99.90;;;;;;4988819;28;20074;-67
2020/12/01 07:01:08;;;;;;;30.73;2.78;;;8.50;99.90;;;;;;4987630;28;20061;-67
2020/12/01 07:03:34;;;;;;;27.83;3.15;;;8.50;99.90;;;;;;4994726;28;20042;-65
2020/12/01 07:06:29;;;;;;;19.88;2.75;;;8.50;99.90;;;;;;4994663;28;20029;-66
2020/12/01 07:09:24;;;;;;;26.35;2.70;;;8.60;99.90;;;;;;4970791;28;20566;-67
2020/12/01 07:12:08;;;;;;;31.58;3.78;;;8.60;99.90;;;;;;4979900;28;20495;-65
2020/12/01 07:15:01;;;;;;;21.08;3.25;;;8.60;99.90;;;;;;4984557;28;20105;-67
2020/12/01 07:17:28;;;;;;;14.85;1.65;;;8.60;99.90;;;;;;4991027;28;20042;-66
2020/12/01 07:20:00;;;;;;;14.52;3.10;;;8.70;99.90;;;;;;4995417;28;20439;-67
2020/12/01 07:22:34;;;;;;;27.45;3.53;;;8.60;99.90;;;;;;4992383;28;20042;-66
2020/12/01 07:25:53;;;;;;;28.67;2.50;;;8.70;99.90;;;;;;5004463;28;20385;-66
2020/12/01 07:28:36;;;;;;;27.23;2.78;;;8.70;99.90;;;;;;4903190;29;20044;-67
2020/12/01 07:31:19;;;;;;;24.30;3.85;;;8.60;99.90;;;;;;4905083;29;20487;-66
2020/12/01 07:33:52;;;;;;;12.07;2.22;;;8.70;99.90;;;;;;4975933;28;20100;-66
2020/12/01 07:36:34;;;;;;;35.22;3.63;;;8.70;99.90;;;;;;4988779;28;20034;-66
2020/12/01 07:39:09;;;;;;;24.17;3.15;;;8.70;99.90;;;;;;4991653;28;20053;-66
2020/12/01 07:41:48;;;;;;;12.48;2.97;;;8.70;99.90;;;;;;4992167;28;20110;-67
2020/12/01 07:44:18;;;;;;;27.42;5.40;;;8.70;99.90;;;;;;4969843;28;20042;-67
2020/12/01 07:49:15;;;;;;;25.17;4.00;;;8.60;99.90;;;;;;4988222;28;20454;-66
2020/12/01 07:51:42;;;;;;;21.15;2.17;;;8.60;99.90;;;;;;4974830;28;20061;-65
2020/12/01 07:54:08;;;;;;;19.30;3.60;;;8.60;99.90;;;;;;4991736;28;20495;-66
2020/12/01 07:56:38;;;;;;;21.98;2.42;;;8.60;99.90;;;;;;4992271;28;20034;-67
2020/12/01 07:59:12;;;;;;;12.37;2.80;;;8.60;99.90;;;;;;4991541;28;20030;-66
2020/12/01 08:01:39;;;;;;;16.33;2.15;;;8.60;99.90;;;;;;4993475;28;20524;-66
2020/12/01 08:04:18;;;;;;;20.67;3.70;;;8.60;99.90;;;;;;4991740;28;20045;-66
2020/12/01 08:06:44;;;;;;;18.70;2.08;;;8.60;99.90;;;;;;4988398;28;20511;-67
2020/12/01 08:09:21;;;;;;;17.95;2.30;;;8.60;99.90;;;;;;4982119;28;20038;-67
2020/12/01 08:11:48;;;;;;;19.52;3.83;;;8.60;99.90;;;;;;4994167;28;20442;-67
2020/12/01 08:14:14;;;;;;;15.77;3.05;;;8.60;99.90;;;;;;4988248;28;20050;-67
2020/12/01 08:16:41;;;;;;;21.27;2.72;;;8.60;99.90;;;;;;4988068;28;20384;-66
2020/12/01 08:19:10;;;;;;;22.02;2.92;;;8.50;99.90;;;;;;4991212;28;20056;-66
2020/12/01 08:21:38;;;;;;;22.15;3.00;;;8.50;99.90;;;;;;4989048;28;20042;-67
2020/12/01 08:24:08;;;;;;;25.55;4.05;;;8.50;99.90;;;;;;4991561;28;20038;-72
2020/12/01 08:26:36;;;;;;;21.60;3.25;;;8.50;99.90;;;;;;4991428;28;20189;-67
2020/12/01 08:29:17;;;;;;;22.80;3.90;;;8.50;99.90;;;;;;4991437;28;20403;-66
2020/12/01 08:32:11;;;;;;;21.33;4.25;;;8.50;99.90;;;;;;4998819;28;20027;-67
2020/12/01 08:34:54;;;;;;;31.52;3.83;;;8.40;99.90;;;;;;4990494;28;20049;-66
2020/12/01 08:37:33;;;;;;;23.85;4.22;;;8.50;99.90;;;;;;4988659;28;20126;-69
2020/12/01 08:40:10;;;;;;;27.05;3.10;;;8.50;99.90;;;;;;4989910;28;20430;-66
2020/12/01 08:42:44;;;;;;;32.03;3.78;;;8.50;99.90;;;;;;4990158;28;20038;-67
2020/12/01 08:45:12;;;;;;;17.92;3.50;;;8.50;99.90;;;;;;4979820;28;20038;-64
2020/12/01 08:47:40;;;;;;;17.48;2.67;;;8.50;99.90;;;;;;4985703;28;20497;-67
2020/12/01 08:50:32;;;;;;;14.15;2.83;;;8.50;99.90;;;;;;4990498;28;20039;-66
2020/12/01 08:53:10;;;;;;;18.95;2.65;;;8.60;99.90;;;;;;4987989;28;20046;-66
2020/12/01 08:55:41;;;;;;;19.75;2.38;;;8.50;99.90;;;;;;4993477;28;20030;-66
2020/12/01 08:58:15;;;;;;;29.08;3.92;;;8.50;99.90;;;;;;4991027;28;20488;-65
2020/12/01 09:01:00;;;;;;;27.90;3.67;;;8.60;99.90;;;;;;4990693;28;20037;-66
2020/12/01 09:03:28;;;;;;;28.75;3.65;;;8.60;99.90;;;;;;5004493;28;20089;-66
2020/12/01 09:05:54;;;;;;;18.33;2.75;;;8.60;99.90;;;;;;4985804;28;20033;-65
2020/12/01 09:08:47;;;;;;;19.60;3.00;;;8.70;99.90;;;;;;4994329;28;20041;-66
2020/12/01 09:19:49;;;;;;;18.10;2.58;;;8.70;99.90;;;;;;4995270;28;20093;-64
2020/12/01 09:22:21;;;;;;;16.35;2.92;;;8.70;99.90;;;;;;4994674;28;20117;-66
2020/12/01 09:24:48;;;;;;;18.52;3.28;;;8.70;99.90;;;;;;4994887;28;20042;-66
2020/12/01 09:27:16;;;;;;;20.23;2.45;;;8.70;99.90;;;;;;4994738;28;20376;-67
2020/12/01 09:29:50;;;;;;;13.45;4.18;;;8.70;99.90;;;;;;4983815;28;20084;-66
2020/12/01 09:32:23;;;;;;;13.05;1.70;;;8.80;99.90;;;;;;4994603;28;20042;-67
2020/12/01 09:34:49;;;;;;;23.00;2.40;;;8.90;99.90;;;;;;4993313;28;20046;-66
2020/12/01 09:37:16;;;;;;;12.30;2.00;;;8.80;99.90;;;;;;4993134;28;20029;-65
2020/12/01 09:39:42;;;;;;;18.67;1.92;;;8.80;99.90;;;;;;4995320;28;20543;-67
2020/12/01 09:42:16;;;;;;;15.43;2.22;;;8.80;99.90;;;;;;4993394;28;20046;-67
2020/12/01 09:44:59;;;;;;;20.73;2.53;;;8.80;99.90;;;;;;4990409;28;20038;-67
2020/12/01 09:47:44;;;;;;;16.38;2.78;;;8.90;99.90;;;;;;4993658;28;20141;-66
2020/12/01 09:50:32;;;;;;;25.55;2.08;;;8.90;99.90;;;;;;4989302;28;20038;-67
2020/12/01 09:53:19;;;;;;;13.10;2.45;;;8.90;99.90;;;;;;4993195;28;20054;-66
2020/12/01 09:58:27;;;;;;;15.88;3.13;;;9.10;99.90;;;;;;4992988;28;20034;-66
2020/12/01 10:11:33;;;;;;;23.67;2.55;;;9.30;99.90;;;;;;4992724;28;20399;-67
2020/12/01 10:23:09;;;;;;;;;;;9.50;99.90;;;;;;4992063;28;20088;-67
2020/12/01 10:37:33;;;;;;;11.40;2.10;;;9.50;99.90;;;;;;4993430;28;20137;-65
2020/12/01 10:39:59;;;;;;;13.77;1.98;;;9.40;99.90;;;;;;4982281;28;20558;-66
2020/12/01 10:42:25;;;;;;;13.27;2.00;;;9.50;99.90;;;;;;4991347;28;20038;-66
2020/12/01 10:44:50;;;;;;;10.52;1.63;;;9.50;99.90;;;;;;4992004;28;20061;-67
2020/12/01 10:47:16;;;;;;;14.65;1.95;;;9.50;99.90;;;;;;4981891;28;20034;-65
2020/12/01 10:49:41;;;;;;;21.85;3.58;;;9.50;99.90;;;;;;4993378;28;20030;-65
2020/12/01 10:52:07;;;;;;;15.63;2.65;;;9.50;99.90;;;;;;4991641;28;20043;-68
2020/12/01 10:54:33;;;;;;;12.77;2.13;;;9.50;99.90;;;;;;4991062;28;20042;-66
2020/12/01 10:56:59;;;;;;;12.75;1.80;;;9.40;99.90;;;;;;4991643;28;20026;-66
2020/12/01 10:59:26;;;;;;;16.15;1.75;;;9.50;99.90;;;;;;4981670;28;20530;-67
2020/12/01 11:01:51;;;;;;;15.52;2.33;;;9.50;99.90;;;;;;4976679;28;20434;-66
2020/12/01 11:04:19;;;;;;;18.38;3.25;;;9.50;99.90;;;;;;4991030;28;20045;-67
2020/12/01 11:06:45;;;;;;;12.98;1.50;;;9.50;99.90;;;;;;5004915;28;20454;-65
2020/12/01 11:09:11;;;;;;;17.63;1.73;;;9.50;99.90;;;;;;4991277;28;20556;-66
2020/12/01 11:11:38;;;;;;;15.23;1.73;;;9.40;99.90;;;;;;4992242;28;20034;-66
2020/12/01 11:14:04;;;;;;;12.40;2.25;;;9.40;99.90;;;;;;4991398;28;20034;-65
2020/12/01 11:16:29;;;;;;;19.48;2.47;;;9.30;99.90;;;;;;4986692;28;20037;-65
2020/12/01 11:18:55;;;;;;;19.00;2.75;;;9.30;99.90;;;;;;4990356;28;20038;-66
2020/12/01 11:21:21;;;;;;;14.30;2.00;;;9.30;99.90;;;;;;4980776;28;20517;-66
2020/12/01 11:23:46;;;;;;;15.73;2.33;;;9.30;99.90;;;;;;4992251;28;20034;-66
2020/12/01 11:26:20;;;;;;;16.02;2.55;;;9.30;99.90;;;;;;4990934;28;20097;-67
2020/12/01 11:28:46;;;;;;;18.02;2.65;;;9.30;99.90;;;;;;4990356;28;20089;-66
2020/12/01 11:31:11;;;;;;;16.70;2.05;;;9.40;99.90;;;;;;4980403;28;20105;-66
2020/12/01 11:33:37;;;;;;;10.00;1.70;;;9.50;99.90;;;;;;4989602;28;20046;-67
2020/12/01 11:36:02;;;;;;;15.93;2.00;;;9.60;99.90;;;;;;4990254;28;20038;-66
2020/12/01 11:38:28;;;;;;;18.83;2.38;;;9.60;99.90;;;;;;4990125;28;20038;-67
2020/12/01 11:40:53;;;;;;;21.17;2.30;;;9.70;99.90;;;;;;4990297;28;20173;-66
2020/12/01 11:43:19;;;;;;;14.48;1.95;;;9.90;99.90;;;;;;4988699;28;20057;-69
2020/12/01 11:45:45;;;;;;;12.50;1.90;;;9.80;99.90;;;;;;4999990;28;20086;-67
2020/12/01 11:48:10;;;;;;;13.57;2.13;;;9.90;99.90;;;;;;4985831;28;20026;-65
2020/12/01 11:50:36;;;;;;;12.15;1.90;;;9.90;99.90;;;;;;4998596;28;20045;-69
2020/12/01 11:53:01;;;;;;;22.33;3.13;;;9.90;99.90;;;;;;4996048;28;20376;-66
2020/12/01 11:55:27;;;;;;;21.38;2.88;;;9.80;99.90;;;;;;4993694;28;20541;-66
2020/12/01 11:57:52;;;;;;;10.70;2.13;;;9.80;99.90;;;;;;4993702;28;20030;-67
2020/12/01 12:00:22;;;;;;;13.57;1.92;;;9.90;99.90;;;;;;4987570;28;20026;-66
2020/12/01 12:02:47;;;;;;;17.08;2.00;;;10.00;99.90;;;;;;4971425;28;20045;-66
2020/12/01 12:05:13;;;;;;;19.55;2.17;;;10.10;99.90;;;;;;4981315;28;20027;-66
2020/12/01 12:07:39;;;;;;;15.68;1.67;;;10.10;99.90;;;;;;4990142;28;20038;-67
2020/12/01 12:10:06;;;;;;;13.57;2.20;;;10.20;99.90;;;;;;4989634;28;20059;-67
2020/12/01 12:12:32;;;;;;;11.57;2.22;;;10.20;99.90;;;;;;4988990;28;20034;-67
2020/12/01 12:14:57;;;;;;;21.42;1.80;;;10.20;99.90;;;;;;4979732;28;20044;-66
2020/12/01 12:17:23;;;;;;;26.48;3.17;;;10.20;99.90;;;;;;4981599;28;20035;-67
2020/12/01 12:19:49;;;;;;;18.45;1.90;;;10.20;99.90;;;;;;4989871;28;20069;-68
2020/12/01 12:22:14;;;;;;;22.23;2.15;;;10.20;99.90;;;;;;4989531;28;20046;-68
2020/12/01 12:24:40;;;;;;;13.25;1.50;;;10.30;99.90;;;;;;4989144;28;20030;-65
2020/12/01 12:27:06;;;;;;;19.83;3.08;;;10.20;99.90;;;;;;4987452;28;20503;-66
2020/12/01 12:29:31;;;;;;;21.00;2.67;;;10.20;99.90;;;;;;4991583;28;20042;-66
2020/12/01 12:31:57;;;;;;;15.07;1.63;;;10.20;99.90;;;;;;4991522;28;20047;-67
2020/12/01 12:34:22;;;;;;;7.85;1.70;;;10.20;99.90;;;;;;4993218;28;20050;-65
2020/12/01 12:36:48;;;;;;;17.20;2.80;;;10.20;99.90;;;;;;4992254;28;20038;-66
2020/12/01 12:39:14;;;;;;;20.35;2.30;;;10.10;99.90;;;;;;4992147;28;20126;-66
2020/12/01 12:41:39;;;;;;;22.45;2.78;;;10.20;99.90;;;;;;4992741;28;20485;-65
2020/12/01 12:44:06;;;;;;;12.05;1.67;;;10.10;99.90;;;;;;4983052;28;20042;-67
2020/12/01 12:46:32;;;;;;;20.15;2.38;;;10.20;99.90;;;;;;4993489;28;20038;-65
2020/12/01 12:48:58;;;;;;;11.95;1.70;;;10.10;99.90;;;;;;4992426;28;20041;-67
2020/12/01 12:51:24;;;;;;;15.27;1.40;;;10.10;99.90;;;;;;4990203;28;20038;-66
2020/12/01 12:53:50;;;;;;;14.73;3.20;;;10.10;99.90;;;;;;4993025;28;20101;-66
2020/12/01 12:56:15;;;;;;;20.73;2.38;;;10.00;99.90;;;;;;4992989;28;20049;-67
2020/12/01 12:58:41;;;;;;;14.55;1.95;;;10.00;99.90;;;;;;4992444;28;20550;-67
2020/12/01 13:01:07;;;;;;;12.07;1.50;;;10.00;99.90;;;;;;4982756;28;20692;-66
2020/12/01 13:03:32;;;;;;;20.08;2.25;;;10.10;99.90;;;;;;4993380;28;20092;-67
2020/12/01 13:05:58;;;;;;;14.40;2.20;;;10.10;99.90;;;;;;4992324;28;20034;-66
2020/12/01 13:08:23;;;;;;;17.15;2.00;;;10.10;99.90;;;;;;4992842;28;20376;-66
2020/12/01 13:10:49;;;;;;;11.80;1.60;;;10.10;99.90;;;;;;4991752;28;20073;-67
2020/12/01 13:13:14;;;;;;;16.35;1.55;;;10.10;99.90;;;;;;4992412;28;20034;-67
2020/12/01 13:15:40;;;;;;;25.38;3.40;;;10.10;99.90;;;;;;4993114;28;20035;-66
2020/12/01 13:18:06;;;;;;;14.40;2.58;;;10.00;99.90;;;;;;4982213;28;20018;-67
2020/12/01 13:20:32;;;;;;;19.63;2.38;;;10.00;99.90;;;;;;4992344;28;20258;-67
2020/12/01 13:22:59;;;;;;;7.38;2.25;;;10.00;99.90;;;;;;4982644;28;20030;-65
2020/12/01 13:25:25;;;;;;;12.02;1.90;;;10.00;99.90;;;;;;4992907;28;20034;-67
2020/12/01 13:27:51;;;;;;;13.07;1.55;;;10.10;99.90;;;;;;4988202;28;20034;-68
2020/12/01 13:30:19;;;;;;;17.88;2.05;;;10.10;99.90;;;;;;4992335;28;20032;-69
2020/12/01 13:32:45;;;;;;;12.85;1.73;;;10.20;99.90;;;;;;4990915;28;20483;-66
2020/12/01 13:35:12;;;;;;;12.20;2.30;;;10.20;99.90;;;;;;4992244;28;20050;-67
2020/12/01 13:37:38;;;;;;;16.52;2.75;;;10.10;99.90;;;;;;4992487;28;20027;-67
2020/12/01 13:40:05;;;;;;;13.27;2.25;;;10.10;99.90;;;;;;4991928;28;20037;-66
2020/12/01 13:42:31;;;;;;;15.38;1.60;;;10.10;99.90;;;;;;4991116;28;20030;-67
2020/12/01 13:44:56;;;;;;;23.17;2.25;;;10.00;99.90;;;;;;4982070;28;20030;-67
2020/12/01 13:47:22;;;;;;;18.98;1.95;;;10.10;99.90;;;;;;4991798;28;20034;-67